Time;durP1;ratioP1;P1;durP2;ratioP2;P2;SDS_P1;SDS_P2;PMS_P1;PMS_P2;Temp;Humidity;BMP_temperature;BMP_pressure;BME280_temperature;BME280_humidity;BME280_pressure;Samples;Min_cycle;Max_cycle;Signal;HPM_P1;HPM_P2
2024/01/17 00:01:29;;;;;;;0.90;0.90;;;0.40;99.90;;;;;;4954524;28;20203;-82
2024/01/17 00:03:55;;;;;;;0.70;0.70;;;0.30;99.90;;;;;;4963005;28;20050;-79
2024/01/17 00:06:21;;;;;;;0.70;0.70;;;0.20;99.90;;;;;;4962282;28;20042;-80
2024/01/17 00:08:47;;;;;;;0.80;0.80;;;0.10;99.90;;;;;;4963580;28;20046;-80
2024/01/17 00:11:12;;;;;;;0.70;0.70;;;0.10;99.90;;;;;;4964576;28;20483;-78
2024/01/17 00:13:40;;;;;;;0.60;0.60;;;0.10;99.90;;;;;;4944069;28;20496;-79
2024/01/17 00:16:06;;;;;;;1.35;1.27;;;0.00;99.90;;;;;;4960829;28;20630;-79
2024/01/17 00:18:32;;;;;;;0.80;0.80;;;0.00;99.90;;;;;;4944130;28;20043;-80
2024/01/17 00:20:58;;;;;;;0.90;0.90;;;0.10;99.90;;;;;;4926328;28;20054;-80
2024/01/17 00:23:24;;;;;;;0.70;0.70;;;-0.30;99.90;;;;;;4970173;28;20113;-79
2024/01/17 00:25:51;;;;;;;0.70;0.70;;;-0.20;99.90;;;;;;4962385;28;20424;-80
2024/01/17 00:28:17;;;;;;;0.57;0.57;;;-0.10;99.90;;;;;;4963172;28;20504;-78
2024/01/17 00:30:43;;;;;;;;;;;0.00;99.90;;;;;;4961129;28;20062;-79
2024/01/17 00:33:09;;;;;;;0.70;0.70;;;-0.20;99.90;;;;;;4950805;28;19922;-78
2024/01/17 00:35:36;;;;;;;0.80;0.80;;;-0.20;99.90;;;;;;4947495;28;20038;-79
2024/01/17 00:38:02;;;;;;;0.70;0.70;;;-0.20;99.90;;;;;;4965018;28;20074;-78
2024/01/17 00:40:30;;;;;;;0.70;0.70;;;-0.20;99.90;;;;;;4935405;28;20077;-81
2024/01/17 00:42:56;;;;;;;0.65;0.65;;;-0.20;99.90;;;;;;4954146;28;20054;-79
2024/01/17 00:45:22;;;;;;;0.80;0.80;;;0.00;99.90;;;;;;4951567;28;20160;-79
2024/01/17 00:47:47;;;;;;;0.63;0.63;;;-0.10;99.90;;;;;;4962451;28;20050;-78
2024/01/17 00:50:14;;;;;;;0.70;0.70;;;-0.10;99.90;;;;;;4964950;28;20043;-80
2024/01/17 00:52:40;;;;;;;0.85;0.85;;;0.00;99.90;;;;;;4965893;28;20517;-78
2024/01/17 00:55:06;;;;;;;0.80;0.80;;;0.00;99.90;;;;;;4965247;28;20035;-81
2024/01/17 00:57:31;;;;;;;0.70;0.70;;;0.00;99.90;;;;;;4966936;28;20031;-78
2024/01/17 00:59:57;;;;;;;0.60;0.60;;;0.00;99.90;;;;;;4949105;28;20176;-78
2024/01/17 01:02:24;;;;;;;1.05;1.05;;;0.00;99.90;;;;;;4967176;28;20097;-79
2024/01/17 01:04:50;;;;;;;0.70;0.70;;;0.10;99.90;;;;;;4948123;28;20043;-80
2024/01/17 01:07:16;;;;;;;0.85;0.85;;;0.10;99.90;;;;;;4950536;28;20047;-79
2024/01/17 01:09:43;;;;;;;0.63;0.63;;;-0.10;99.90;;;;;;4969575;28;20045;-79
2024/01/17 01:12:08;;;;;;;0.80;0.80;;;0.10;99.90;;;;;;4966504;28;20516;-80
2024/01/17 01:14:34;;;;;;;0.70;0.70;;;0.10;99.90;;;;;;4965073;28;20462;-78
2024/01/17 01:17:00;;;;;;;0.70;0.70;;;0.10;99.90;;;;;;4954326;28;20031;-80
2024/01/17 01:19:26;;;;;;;0.70;0.70;;;0.10;99.90;;;;;;4968659;28;20042;-79
2024/01/17 01:21:51;;;;;;;1.50;1.33;;;0.20;99.90;;;;;;4985775;28;20057;-79
2024/01/17 01:24:17;;;;;;;0.73;0.73;;;0.30;99.90;;;;;;4952625;28;20195;-80
2024/01/17 01:26:43;;;;;;;0.60;0.60;;;0.10;99.90;;;;;;4955105;28;20772;-79
2024/01/17 01:29:09;;;;;;;0.80;0.80;;;-0.10;99.90;;;;;;4956062;28;20050;-78
2024/01/17 01:31:34;;;;;;;1.73;1.63;;;0.40;99.90;;;;;;4965903;28;20134;-80
2024/01/17 01:34:00;;;;;;;0.70;0.70;;;0.10;99.90;;;;;;4970533;28;20503;-80
2024/01/17 01:36:26;;;;;;;1.42;1.33;;;0.20;99.90;;;;;;4931333;28;20035;-80
2024/01/17 01:38:52;;;;;;;0.98;0.98;;;0.10;99.90;;;;;;4951428;28;20091;-80
2024/01/17 01:41:18;;;;;;;1.20;1.20;;;0.10;99.90;;;;;;4965862;28;20047;-79
2024/01/17 01:43:43;;;;;;;0.90;0.90;;;-0.10;99.90;;;;;;4969186;28;20045;-78
2024/01/17 01:46:23;;;;;;;0.80;0.80;;;0.40;99.90;;;;;;4967762;28;20042;-80
2024/01/17 01:48:50;;;;;;;0.70;0.70;;;0.10;99.90;;;;;;4973446;28;20039;-78
2024/01/17 01:51:18;;;;;;;3.22;3.03;;;0.10;99.90;;;;;;4970402;28;20046;-79
2024/01/17 01:53:46;;;;;;;0.60;0.60;;;0.20;99.90;;;;;;4955900;28;20035;-78
2024/01/17 01:56:15;;;;;;;1.70;1.60;;;0.10;99.90;;;;;;4951451;28;20050;-80
2024/01/17 01:58:43;;;;;;;0.77;0.77;;;0.10;99.90;;;;;;4954343;28;20389;-78
2024/01/17 02:01:11;;;;;;;1.33;1.23;;;0.10;99.90;;;;;;4969779;28;20042;-80
2024/01/17 02:03:38;;;;;;;0.70;0.70;;;0.10;99.90;;;;;;4952940;28;20525;-80
2024/01/17 02:06:04;;;;;;;1.35;1.33;;;0.10;99.90;;;;;;4971602;28;20050;-80
2024/01/17 02:08:30;;;;;;;0.93;0.88;;;0.00;99.90;;;;;;4952726;28;20050;-79
2024/01/17 02:10:57;;;;;;;1.20;1.15;;;0.00;99.90;;;;;;4955885;28;20044;-81
2024/01/17 02:13:23;;;;;;;0.88;0.88;;;0.10;99.90;;;;;;4956851;28;21412;-81
2024/01/17 02:15:48;;;;;;;0.70;0.70;;;0.00;99.90;;;;;;4981604;28;20764;-81
2024/01/17 02:18:14;;;;;;;1.45;1.40;;;0.00;99.90;;;;;;4959834;28;20034;-80
2024/01/17 02:20:46;;;;;;;0.77;0.77;;;0.00;99.90;;;;;;4953482;28;20101;-78
2024/01/17 02:23:25;;;;;;;0.98;0.98;;;-0.40;99.90;;;;;;4949596;28;20472;-78
2024/01/17 02:25:52;;;;;;;0.90;0.90;;;-0.10;99.90;;;;;;4966513;28;20054;-80
2024/01/17 02:28:18;;;;;;;0.70;0.70;;;0.50;99.90;;;;;;4948931;28;20160;-79
2024/01/17 02:30:45;;;;;;;1.38;1.35;;;1.40;99.90;;;;;;4968203;28;20039;-78
2024/01/17 02:33:13;;;;;;;1.35;1.35;;;0.00;99.90;;;;;;4951585;28;20049;-81
2024/01/17 02:35:40;;;;;;;0.70;0.70;;;0.00;99.90;;;;;;4953972;28;20046;-81
2024/01/17 02:38:06;;;;;;;0.70;0.70;;;0.00;99.90;;;;;;4969397;28;20131;-79
2024/01/17 02:40:33;;;;;;;0.75;0.75;;;0.00;99.90;;;;;;4953158;28;20538;-78
2024/01/17 02:42:59;;;;;;;0.85;0.85;;;0.40;99.90;;;;;;4967880;28;20065;-80
2024/01/17 02:45:25;;;;;;;1.10;1.10;;;-0.20;99.90;;;;;;4969729;28;20042;-79
2024/01/17 02:47:50;;;;;;;0.95;0.93;;;-0.10;99.90;;;;;;4966887;28;20050;-80
2024/01/17 02:50:16;;;;;;;0.85;0.85;;;-0.10;99.90;;;;;;4952560;28;20051;-82
2024/01/17 02:52:42;;;;;;;2.38;2.15;;;-0.10;99.90;;;;;;4952667;28;20174;-81
2024/01/17 02:55:10;;;;;;;2.45;2.25;;;-0.10;99.90;;;;;;4962472;28;20133;-80
2024/01/17 02:57:35;;;;;;;0.73;0.73;;;0.10;99.90;;;;;;4988590;28;20041;-80
2024/01/17 03:00:01;;;;;;;1.50;1.40;;;-0.20;99.90;;;;;;4968924;28;20047;-80
2024/01/17 03:02:27;;;;;;;0.80;0.80;;;0.30;99.90;;;;;;4968928;28;20042;-82
2024/01/17 03:04:53;;;;;;;0.70;0.70;;;-0.20;99.90;;;;;;4968153;28;21925;-80
2024/01/17 03:07:18;;;;;;;1.05;1.05;;;-0.20;99.90;;;;;;4974908;28;20046;-80
2024/01/17 03:09:44;;;;;;;0.80;0.80;;;-0.20;99.90;;;;;;4953142;28;20420;-82
2024/01/17 03:12:10;;;;;;;0.80;0.80;;;-0.20;99.90;;;;;;4951998;28;20102;-78
2024/01/17 03:14:36;;;;;;;0.77;0.77;;;-0.30;99.90;;;;;;4952541;28;20493;-78
2024/01/17 03:17:02;;;;;;;0.80;0.80;;;-0.30;99.90;;;;;;4953938;28;20046;-79
2024/01/17 03:19:27;;;;;;;;;;;-0.30;99.90;;;;;;4952640;28;20059;-79
2024/01/17 03:21:53;;;;;;;0.93;0.93;;;-0.40;99.90;;;;;;4953990;28;19918;-78
2024/01/17 03:24:19;;;;;;;0.80;0.80;;;-0.30;99.90;;;;;;4966232;28;20446;-81
2024/01/17 03:26:45;;;;;;;2.90;1.80;;;-0.40;99.90;;;;;;4953879;28;20042;-80
2024/01/17 03:29:11;;;;;;;0.80;0.80;;;-0.40;99.90;;;;;;4983617;28;20234;-81
2024/01/17 03:31:37;;;;;;;0.80;0.80;;;-0.40;99.90;;;;;;4952135;28;20489;-81
2024/01/17 03:34:03;;;;;;;0.90;0.90;;;-0.40;99.90;;;;;;4952493;28;20126;-80
2024/01/17 03:36:29;;;;;;;0.70;0.70;;;-0.40;99.90;;;;;;4964480;28;20121;-78
2024/01/17 03:38:55;;;;;;;1.90;1.80;;;-0.40;99.90;;;;;;4952745;28;20043;-79
2024/01/17 03:41:21;;;;;;;0.80;0.80;;;-0.40;99.90;;;;;;4966789;28;20488;-79
2024/01/17 03:43:48;;;;;;;2.72;2.53;;;0.20;99.90;;;;;;4951940;28;20964;-79
2024/01/17 03:46:13;;;;;;;;;;;-0.30;99.90;;;;;;4963482;28;20112;-81
2024/01/17 03:48:39;;;;;;;0.70;0.70;;;-0.30;99.90;;;;;;4965873;28;20279;-79
2024/01/17 03:51:05;;;;;;;2.75;2.65;;;-0.40;99.90;;;;;;4969295;28;20049;-79
2024/01/17 03:53:31;;;;;;;0.70;0.70;;;-0.40;99.90;;;;;;4953684;28;20055;-80
2024/01/17 03:55:57;;;;;;;2.60;1.90;;;-0.30;99.90;;;;;;4966817;28;20043;-80
2024/01/17 03:58:22;;;;;;;0.80;0.80;;;-0.40;99.90;;;;;;4965233;28;20042;-81
2024/01/17 04:00:48;;;;;;;0.77;0.77;;;-0.40;99.90;;;;;;4930831;28;20472;-78
2024/01/17 04:03:14;;;;;;;0.77;0.77;;;-0.40;99.90;;;;;;4950858;28;20043;-79
2024/01/17 04:05:43;;;;;;;0.70;0.70;;;-0.40;99.90;;;;;;4949103;28;20049;-78
2024/01/17 04:08:09;;;;;;;0.90;0.90;;;-0.50;99.90;;;;;;4964965;28;20050;-80
2024/01/17 04:10:35;;;;;;;;;;;-0.40;99.90;;;;;;4950856;28;20045;-81
2024/01/17 04:13:01;;;;;;;0.65;0.65;;;-0.50;99.90;;;;;;4950171;28;20303;-79
2024/01/17 04:15:27;;;;;;;0.95;0.82;;;-0.60;99.90;;;;;;4966320;28;20061;-81
2024/01/17 04:17:53;;;;;;;0.70;0.70;;;-0.60;99.90;;;;;;4966936;28;20126;-80
2024/01/17 04:20:19;;;;;;;0.80;0.80;;;-0.60;99.90;;;;;;4949217;28;20532;-80
2024/01/17 04:22:45;;;;;;;3.85;3.55;;;-0.60;99.90;;;;;;4970778;28;20050;-78
2024/01/17 04:25:14;;;;;;;2.08;1.88;;;-0.60;99.90;;;;;;4967898;28;20039;-80
2024/01/17 04:27:40;;;;;;;1.08;1.08;;;-0.70;99.90;;;;;;4962495;28;20555;-79
2024/01/17 04:30:06;;;;;;;;;;;-0.60;99.90;;;;;;4967318;28;20147;-77
2024/01/17 04:32:35;;;;;;;1.08;1.08;;;-0.70;99.90;;;;;;4984255;28;19968;-77
2024/01/17 04:35:01;;;;;;;1.33;1.33;;;-0.70;99.90;;;;;;4966241;28;20034;-80
2024/01/17 04:37:27;;;;;;;0.80;0.80;;;-0.70;99.90;;;;;;4960659;28;20097;-78
2024/01/17 04:39:53;;;;;;;1.05;1.05;;;-0.70;99.90;;;;;;4965906;28;20337;-77
2024/01/17 04:42:18;;;;;;;1.10;1.10;;;-0.70;99.90;;;;;;4960186;28;20039;-78
2024/01/17 04:44:45;;;;;;;2.22;2.13;;;-0.70;99.90;;;;;;4970895;28;20086;-78
2024/01/17 04:47:13;;;;;;;2.03;1.88;;;-0.70;99.90;;;;;;4953679;28;20469;-79
2024/01/17 04:49:39;;;;;;;1.00;1.00;;;-0.70;99.90;;;;;;4973450;28;20137;-78
2024/01/17 04:52:05;;;;;;;1.05;1.02;;;-0.70;99.90;;;;;;4971755;28;20189;-81
2024/01/17 04:54:31;;;;;;;0.75;0.75;;;-0.70;99.90;;;;;;4956029;28;20039;-79
2024/01/17 04:57:00;;;;;;;0.80;0.80;;;-0.70;99.90;;;;;;4956637;28;20039;-78
2024/01/17 04:59:26;;;;;;;0.70;0.70;;;-0.70;99.90;;;;;;4953537;28;20397;-77
2024/01/17 05:01:52;;;;;;;1.05;1.05;;;-0.80;99.90;;;;;;4953812;28;20046;-79
2024/01/17 05:04:18;;;;;;;0.80;0.80;;;-0.80;99.90;;;;;;4953464;28;20050;-81
2024/01/17 05:06:43;;;;;;;0.95;0.95;;;-0.80;99.90;;;;;;4967388;28;20499;-79
2024/01/17 05:09:11;;;;;;;1.65;1.20;;;-0.90;99.90;;;;;;4972829;28;20046;-80
2024/01/17 05:11:37;;;;;;;1.17;1.17;;;-0.90;99.90;;;;;;4966054;28;20511;-80
2024/01/17 05:14:03;;;;;;;;;;;-0.90;99.90;;;;;;4965659;28;20073;-80
2024/01/17 05:16:29;;;;;;;1.33;1.33;;;-0.90;99.90;;;;;;4963296;28;19926;-80
2024/01/17 05:18:55;;;;;;;0.80;0.80;;;-0.90;99.90;;;;;;4962815;28;20039;-78
2024/01/17 05:21:20;;;;;;;1.10;1.10;;;-1.00;99.90;;;;;;4955254;28;20094;-78
2024/01/17 05:23:46;;;;;;;0.70;0.70;;;-0.90;99.90;;;;;;4938934;28;20488;-80
2024/01/17 05:26:12;;;;;;;2.17;1.70;;;-0.90;99.90;;;;;;4953605;28;20373;-77
2024/01/17 05:28:38;;;;;;;0.77;0.77;;;-0.90;99.90;;;;;;4968596;28;20496;-80
2024/01/17 05:31:04;;;;;;;0.80;0.80;;;-0.90;99.90;;;;;;4962017;28;20116;-80
2024/01/17 05:33:30;;;;;;;;;;;-0.90;99.90;;;;;;4954536;28;20090;-79
2024/01/17 05:35:56;;;;;;;0.80;0.80;;;-1.00;99.90;;;;;;4971409;28;19961;-79
2024/01/17 05:38:22;;;;;;;2.03;1.92;;;-1.00;99.90;;;;;;4957515;28;20089;-77
2024/01/17 05:40:47;;;;;;;0.90;0.90;;;-1.00;99.90;;;;;;4954542;28;20051;-79
2024/01/17 05:43:13;;;;;;;0.85;0.85;;;-1.00;99.90;;;;;;4955550;28;20157;-81
2024/01/17 05:45:39;;;;;;;;;;;-1.00;99.90;;;;;;4967383;28;20065;-79
2024/01/17 05:48:05;;;;;;;0.80;0.80;;;-1.00;99.90;;;;;;4967203;28;20362;-78
2024/01/17 05:50:31;;;;;;;;;;;-1.00;99.90;;;;;;4969409;28;20496;-81
2024/01/17 05:52:56;;;;;;;0.70;0.70;;;-1.00;99.90;;;;;;4966521;28;19925;-80
2024/01/17 05:55:22;;;;;;;2.30;2.20;;;-1.10;99.90;;;;;;4965406;28;20582;-77
2024/01/17 05:57:50;;;;;;;1.15;1.08;;;-1.20;99.90;;;;;;4969132;28;20213;-78
2024/01/17 06:00:18;;;;;;;0.80;0.80;;;-1.20;99.90;;;;;;4951929;28;20523;-79
2024/01/17 06:02:44;;;;;;;2.67;2.00;;;-1.20;99.90;;;;;;4948502;28;20472;-78
2024/01/17 06:05:11;;;;;;;1.73;1.60;;;-1.20;99.90;;;;;;4952821;28;20090;-79
2024/01/17 06:07:40;;;;;;;1.63;1.52;;;-1.30;99.90;;;;;;4968458;28;20108;-78
2024/01/17 06:10:08;;;;;;;0.70;0.70;;;-1.30;99.90;;;;;;4969646;28;20109;-78
2024/01/17 06:12:37;;;;;;;1.45;1.35;;;-1.40;99.90;;;;;;4966492;28;20085;-79
2024/01/17 06:15:03;;;;;;;0.85;0.85;;;-1.40;99.90;;;;;;4947178;28;20051;-81
2024/01/17 06:17:29;;;;;;;0.73;0.73;;;-1.40;99.90;;;;;;4968048;28;20066;-80
2024/01/17 06:19:54;;;;;;;0.90;0.90;;;-1.40;99.90;;;;;;4951879;28;20393;-81
2024/01/17 06:22:20;;;;;;;1.58;1.48;;;-1.40;99.90;;;;;;4968297;28;20075;-79
2024/01/17 06:24:46;;;;;;;1.27;1.27;;;-1.40;99.90;;;;;;4963886;28;20137;-77
2024/01/17 06:27:18;;;;;;;1.25;1.25;;;-1.40;99.90;;;;;;4973947;28;20124;-79
2024/01/17 06:29:45;;;;;;;0.90;0.90;;;-1.50;99.90;;;;;;4965138;28;20133;-79
2024/01/17 06:32:11;;;;;;;0.73;0.73;;;-1.50;99.90;;;;;;4949393;28;20047;-79
2024/01/17 06:34:39;;;;;;;1.35;1.33;;;-1.50;99.90;;;;;;4950627;28;20053;-78
2024/01/17 06:37:05;;;;;;;1.15;1.15;;;-1.50;99.90;;;;;;4979637;28;20043;-79
2024/01/17 06:39:34;;;;;;;0.70;0.70;;;-1.50;99.90;;;;;;4968047;28;20132;-80
2024/01/17 06:42:00;;;;;;;0.80;0.80;;;-1.50;99.90;;;;;;4949193;28;20050;-81
2024/01/17 06:44:29;;;;;;;1.40;1.30;;;-1.00;99.90;;;;;;4965488;28;20061;-78
2024/01/17 06:46:57;;;;;;;3.33;2.00;;;-1.50;99.90;;;;;;4964994;28;20047;-79
2024/01/17 06:49:23;;;;;;;1.17;1.17;;;-1.50;99.90;;;;;;4951786;28;20035;-80
2024/01/17 06:51:49;;;;;;;1.00;1.00;;;-1.50;99.90;;;;;;4965809;28;20049;-78
2024/01/17 06:54:15;;;;;;;0.82;0.82;;;-1.40;99.90;;;;;;4967882;28;20170;-81
2024/01/17 06:56:41;;;;;;;1.73;1.58;;;-1.40;99.90;;;;;;4949798;28;20042;-78
2024/01/17 06:59:07;;;;;;;0.80;0.80;;;-1.20;99.90;;;;;;4966472;28;20380;-81
2024/01/17 07:01:35;;;;;;;0.95;0.95;;;-1.50;99.90;;;;;;4950308;28;20046;-78
2024/01/17 07:04:02;;;;;;;1.60;1.50;;;-1.50;99.90;;;;;;4965712;28;20523;-77
2024/01/17 07:06:28;;;;;;;1.10;1.05;;;-1.50;99.90;;;;;;4981949;28;20034;-80
2024/01/17 07:08:54;;;;;;;3.30;1.80;;;-0.60;99.90;;;;;;4967875;28;20046;-80
2024/01/17 07:11:19;;;;;;;;;;;-1.20;99.90;;;;;;4957112;28;20829;-78
2024/01/17 07:13:45;;;;;;;0.70;0.70;;;-1.50;99.90;;;;;;4941157;28;19926;-81
2024/01/17 07:16:15;;;;;;;0.90;0.90;;;-1.50;99.90;;;;;;4969441;28;20065;-79
2024/01/17 07:18:40;;;;;;;1.15;1.15;;;-1.50;99.90;;;;;;4969293;28;20034;-79
2024/01/17 07:21:07;;;;;;;0.80;0.80;;;-1.50;99.90;;;;;;4963722;28;20124;-80
2024/01/17 07:23:33;;;;;;;0.82;0.82;;;-1.50;99.90;;;;;;4978083;28;20042;-78
2024/01/17 07:26:00;;;;;;;0.90;0.90;;;-1.50;99.90;;;;;;4977591;28;20046;-80
2024/01/17 07:28:25;;;;;;;;;;;-1.60;99.90;;;;;;4955868;28;20054;-79
2024/01/17 07:30:51;;;;;;;1.85;1.75;;;-1.60;99.90;;;;;;4952341;28;19926;-80
2024/01/17 07:33:17;;;;;;;0.80;0.80;;;-1.60;99.90;;;;;;4944047;28;20051;-81
2024/01/17 07:35:42;;;;;;;;;;;-1.60;99.90;;;;;;4957948;28;20046;-79
2024/01/17 07:38:08;;;;;;;1.20;1.20;;;-1.60;99.90;;;;;;4974658;28;20387;-78
2024/01/17 07:40:34;;;;;;;;;;;-1.60;99.90;;;;;;4955866;28;20043;-79
2024/01/17 07:42:59;;;;;;;1.33;1.30;;;-1.60;99.90;;;;;;4978518;28;20316;-80
2024/01/17 07:45:26;;;;;;;2.15;2.00;;;-0.80;99.90;;;;;;4970493;28;20051;-78
2024/01/17 07:47:52;;;;;;;0.80;0.80;;;-1.70;99.90;;;;;;4954638;28;20051;-78
2024/01/17 07:50:17;;;;;;;;;;;-1.70;99.90;;;;;;4955596;28;20448;-76
2024/01/17 07:52:44;;;;;;;0.93;0.93;;;-1.70;99.90;;;;;;4973973;28;19930;-78
2024/01/17 07:55:09;;;;;;;;;;;-1.70;99.90;;;;;;4976480;28;20043;-79
2024/01/17 07:57:35;;;;;;;1.23;1.23;;;-1.70;99.90;;;;;;4954205;28;20005;-80
2024/01/17 08:00:01;;;;;;;0.80;0.80;;;-1.70;99.90;;;;;;4959708;28;20065;-81
2024/01/17 08:02:27;;;;;;;4.15;1.55;;;-1.70;99.90;;;;;;4954326;28;20058;-81
2024/01/17 08:04:53;;;;;;;;;;;-1.70;99.90;;;;;;4973550;28;20129;-78
2024/01/17 08:07:24;;;;;;;0.90;0.90;;;-1.70;99.90;;;;;;4975047;28;19929;-78
2024/01/17 08:09:54;;;;;;;1.17;1.13;;;-1.60;99.90;;;;;;4970282;28;20039;-79
2024/01/17 08:12:20;;;;;;;0.75;0.75;;;-1.80;99.90;;;;;;4967574;28;20034;-78
2024/01/17 08:14:46;;;;;;;;;;;-1.80;99.90;;;;;;4988470;28;20043;-80
2024/01/17 08:17:12;;;;;;;1.25;1.25;;;-1.80;99.90;;;;;;4976289;28;20244;-79
2024/01/17 08:19:38;;;;;;;1.30;1.27;;;-1.80;99.90;;;;;;4977528;28;20049;-81
2024/01/17 08:22:04;;;;;;;4.75;1.50;;;-1.80;99.90;;;;;;4950083;28;20054;-79
2024/01/17 08:24:30;;;;;;;0.90;0.90;;;-1.80;99.90;;;;;;4976831;28;20054;-78
2024/01/17 08:26:57;;;;;;;1.85;1.75;;;-1.40;99.90;;;;;;4972451;28;20118;-77
2024/01/17 08:29:26;;;;;;;0.90;0.90;;;-1.80;99.90;;;;;;4955258;28;20039;-80
2024/01/17 08:31:52;;;;;;;0.90;0.90;;;-1.80;99.90;;;;;;4950925;28;20506;-81
2024/01/17 08:34:20;;;;;;;;;;;-0.80;99.90;;;;;;4972432;28;20793;-78
2024/01/17 08:36:46;;;;;;;1.02;1.02;;;-1.80;99.90;;;;;;4956567;28;19918;-81
2024/01/17 08:39:12;;;;;;;1.10;1.10;;;-1.80;99.90;;;;;;4950877;28;20050;-81
2024/01/17 08:41:40;;;;;;;;;;;-1.80;99.90;;;;;;4954089;28;20707;-79
2024/01/17 08:44:05;;;;;;;0.80;0.80;;;-1.80;99.90;;;;;;4957164;28;19918;-79
2024/01/17 08:46:31;;;;;;;3.28;3.08;;;-1.80;99.90;;;;;;4971978;28;20039;-79
2024/01/17 08:48:57;;;;;;;0.80;0.80;;;-1.80;99.90;;;;;;4937499;28;20046;-78
2024/01/17 08:51:24;;;;;;;;;;;-1.30;99.90;;;;;;4969635;28;20751;-79
2024/01/17 08:53:50;;;;;;;0.80;0.80;;;-1.70;99.90;;;;;;4977530;28;20378;-78
2024/01/17 08:56:16;;;;;;;0.90;0.90;;;-1.70;99.90;;;;;;4954999;28;20145;-78
2024/01/17 08:58:42;;;;;;;0.80;0.80;;;-1.60;99.90;;;;;;4990996;28;20627;-77
2024/01/17 09:01:09;;;;;;;;;;;-1.50;99.90;;;;;;4975893;28;20483;-79
2024/01/17 09:03:36;;;;;;;;;;;-1.50;99.90;;;;;;4968655;28;19969;-78
2024/01/17 09:06:02;;;;;;;0.90;0.90;;;-1.40;99.90;;;;;;4954021;28;19929;-77
2024/01/17 09:08:27;;;;;;;1.00;1.00;;;-1.30;99.90;;;;;;4953994;28;20117;-77
2024/01/17 09:10:54;;;;;;;1.13;1.13;;;-1.30;99.90;;;;;;4972206;28;20042;-80
2024/01/17 09:13:19;;;;;;;1.00;1.00;;;-1.20;99.90;;;;;;4953798;28;20062;-78
2024/01/17 09:15:45;;;;;;;0.90;0.90;;;-1.20;99.90;;;;;;4968666;28;20409;-78
2024/01/17 09:18:11;;;;;;;0.70;0.70;;;-1.00;99.90;;;;;;4956759;28;20039;-79
2024/01/17 09:20:37;;;;;;;;;;;-1.00;99.90;;;;;;4977154;28;20074;-80
2024/01/17 09:23:03;;;;;;;0.80;0.80;;;-1.00;99.90;;;;;;4958917;28;19984;-81
2024/01/17 09:25:29;;;;;;;0.70;0.70;;;-1.00;99.90;;;;;;4972891;28;20108;-78
2024/01/17 09:27:55;;;;;;;0.80;0.80;;;-0.90;99.90;;;;;;4950460;28;20042;-78
2024/01/17 09:30:20;;;;;;;0.60;0.60;;;-0.90;99.90;;;;;;4975439;28;20045;-78
2024/01/17 09:32:47;;;;;;;0.80;0.80;;;-0.90;99.90;;;;;;4956279;28;20047;-81
2024/01/17 09:35:16;;;;;;;0.82;0.82;;;-0.90;99.90;;;;;;4961113;28;20035;-80
2024/01/17 09:37:43;;;;;;;0.60;0.60;;;-0.90;99.90;;;;;;4974947;28;20045;-79
2024/01/17 09:40:10;;;;;;;1.08;1.08;;;-0.90;99.90;;;;;;4962572;28;20463;-77
2024/01/17 09:42:36;;;;;;;1.02;1.02;;;-0.90;99.90;;;;;;4972063;28;20106;-80
2024/01/17 09:45:03;;;;;;;0.70;0.70;;;-0.80;99.90;;;;;;4958429;28;20077;-78
2024/01/17 09:47:33;;;;;;;0.80;0.80;;;-0.70;99.90;;;;;;4952418;28;20053;-80
2024/01/17 09:50:00;;;;;;;0.90;0.90;;;-0.70;99.90;;;;;;4957174;28;20149;-78
2024/01/17 09:52:26;;;;;;;0.70;0.70;;;-0.70;99.90;;;;;;4968995;28;20039;-81
2024/01/17 09:54:53;;;;;;;0.90;0.90;;;-0.60;99.90;;;;;;4969307;28;20053;-80
2024/01/17 09:57:23;;;;;;;0.80;0.80;;;-0.60;99.90;;;;;;4976341;28;20133;-79
2024/01/17 09:59:51;;;;;;;0.93;0.93;;;-0.50;99.90;;;;;;4971568;28;20050;-79
2024/01/17 10:02:20;;;;;;;0.80;0.80;;;-0.50;99.90;;;;;;4954041;28;20085;-77
2024/01/17 10:04:47;;;;;;;0.70;0.70;;;0.50;99.90;;;;;;4973317;28;20551;-81
2024/01/17 10:07:12;;;;;;;0.77;0.77;;;-0.40;99.90;;;;;;4952799;28;20078;-78
2024/01/17 10:09:40;;;;;;;1.00;1.00;;;-0.50;99.90;;;;;;4978871;28;20082;-78
2024/01/17 10:12:07;;;;;;;1.52;1.42;;;-0.40;99.90;;;;;;4955130;28;20123;-81
2024/01/17 10:14:32;;;;;;;0.70;0.70;;;-0.40;99.90;;;;;;4964838;28;20051;-77
2024/01/17 10:16:58;;;;;;;0.68;0.68;;;-0.40;99.90;;;;;;4992275;28;20049;-80
2024/01/17 10:19:28;;;;;;;1.42;1.33;;;-0.40;99.90;;;;;;4953775;28;20065;-76
2024/01/17 10:21:55;;;;;;;2.65;2.45;;;-0.30;99.90;;;;;;4970890;28;20038;-78
2024/01/17 10:24:21;;;;;;;0.70;0.70;;;-0.30;99.90;;;;;;4954171;28;20125;-78
2024/01/17 10:26:48;;;;;;;0.70;0.70;;;-0.40;99.90;;;;;;4975184;28;20410;-80
2024/01/17 10:29:19;;;;;;;0.75;0.75;;;-0.50;99.90;;;;;;4955231;28;21067;-78
2024/01/17 10:31:45;;;;;;;0.75;0.75;;;-0.50;99.90;;;;;;4945016;28;20085;-80
2024/01/17 10:34:11;;;;;;;0.90;0.90;;;-0.60;99.90;;;;;;4969782;28;20038;-79
2024/01/17 10:36:44;;;;;;;1.48;1.38;;;-0.50;99.90;;;;;;4952809;28;20555;-79
2024/01/17 10:39:11;;;;;;;0.80;0.80;;;0.30;99.90;;;;;;4961272;28;20035;-80
2024/01/17 10:41:50;;;;;;;0.73;0.73;;;-0.30;99.90;;;;;;4942164;28;20475;-78
2024/01/17 10:44:25;;;;;;;0.70;0.70;;;-0.40;99.90;;;;;;4970228;28;20051;-79
2024/01/17 10:46:53;;;;;;;0.80;0.80;;;-0.30;99.90;;;;;;4971698;28;20065;-81
2024/01/17 10:49:20;;;;;;;0.82;0.82;;;-0.30;99.90;;;;;;4989247;28;20047;-79
2024/01/17 10:52:08;;;;;;;0.85;0.85;;;-0.10;99.90;;;;;;4952726;28;20047;-80
2024/01/17 10:54:44;;;;;;;1.08;1.08;;;-0.10;99.90;;;;;;4960158;28;20045;-82
2024/01/17 10:57:10;;;;;;;3.22;3.03;;;-0.10;99.90;;;;;;4958768;28;20035;-78
2024/01/17 10:59:47;;;;;;;0.70;0.70;;;0.00;99.90;;;;;;4969351;28;20085;-81
2024/01/17 11:02:21;;;;;;;0.90;0.90;;;-0.10;99.90;;;;;;4985343;28;20121;-79
2024/01/17 11:04:55;;;;;;;0.82;0.82;;;0.00;99.90;;;;;;4971312;28;20050;-81
2024/01/17 11:07:22;;;;;;;0.68;0.68;;;0.00;99.90;;;;;;4968836;28;20051;-80
2024/01/17 11:09:51;;;;;;;0.70;0.70;;;0.00;99.90;;;;;;4969362;28;20043;-81
2024/01/17 11:12:18;;;;;;;0.70;0.70;;;0.10;99.90;;;;;;4969050;28;20043;-80
2024/01/17 11:14:47;;;;;;;0.80;0.80;;;0.00;99.90;;;;;;4958875;28;20058;-80
2024/01/17 11:17:15;;;;;;;0.80;0.80;;;-0.10;99.90;;;;;;4971956;28;20047;-78
2024/01/17 11:19:44;;;;;;;0.80;0.80;;;-0.10;99.90;;;;;;4973747;28;20110;-80
2024/01/17 11:22:16;;;;;;;1.00;1.00;;;-0.10;99.90;;;;;;4956832;28;20047;-80
2024/01/17 11:24:58;;;;;;;2.50;2.33;;;0.70;99.90;;;;;;4978077;28;20085;-79
2024/01/17 11:27:57;;;;;;;0.70;0.70;;;-0.20;99.90;;;;;;4959906;28;20170;-79
2024/01/17 11:30:48;;;;;;;0.80;0.80;;;-0.20;99.90;;;;;;4966392;28;20524;-79
2024/01/17 11:33:14;;;;;;;0.77;0.77;;;-0.20;99.90;;;;;;4969493;28;20121;-79
2024/01/17 11:35:48;;;;;;;0.68;0.68;;;-0.20;99.90;;;;;;4972631;28;20117;-80
2024/01/17 11:38:31;;;;;;;2.45;2.35;;;-0.30;99.90;;;;;;4965834;28;20058;-79
2024/01/17 11:41:00;;;;;;;3.13;2.83;;;-0.30;99.90;;;;;;4966410;28;20142;-80
2024/01/17 11:43:35;;;;;;;0.80;0.80;;;-0.30;99.90;;;;;;4949392;28;20736;-80
2024/01/17 11:46:04;;;;;;;10.80;2.15;;;-0.30;99.90;;;;;;4946113;28;20046;-79
2024/01/17 11:48:32;;;;;;;0.70;0.70;;;-0.30;99.90;;;;;;4951774;28;20499;-79
2024/01/17 11:51:08;;;;;;;0.80;0.80;;;-0.30;99.90;;;;;;4954080;28;20547;-79
2024/01/17 11:53:40;;;;;;;1.17;1.15;;;-0.30;99.90;;;;;;4965716;28;20109;-80
2024/01/17 11:56:08;;;;;;;0.90;0.90;;;-0.30;99.90;;;;;;4981647;28;20043;-79
2024/01/17 11:58:57;;;;;;;1.20;1.20;;;-0.40;99.90;;;;;;4949855;28;20039;-79
2024/01/17 12:01:37;;;;;;;0.80;0.80;;;-0.30;99.90;;;;;;4967733;28;20685;-79
2024/01/17 12:04:21;;;;;;;0.90;0.90;;;-0.20;99.90;;;;;;4969251;28;20508;-80
2024/01/17 12:06:52;;;;;;;1.02;1.02;;;-0.20;99.90;;;;;;4970552;28;20133;-79
2024/01/17 12:09:18;;;;;;;7.80;2.15;;;-0.30;99.90;;;;;;4936711;28;20472;-79
2024/01/17 12:11:48;;;;;;;0.70;0.70;;;-0.20;99.90;;;;;;4982048;28;20030;-79
2024/01/17 12:14:16;;;;;;;0.70;0.70;;;-0.10;99.90;;;;;;4967019;28;20460;-79
2024/01/17 12:16:45;;;;;;;0.77;0.77;;;-0.10;99.90;;;;;;4969849;28;20090;-80
2024/01/17 12:19:12;;;;;;;0.80;0.80;;;0.00;99.90;;;;;;4934770;28;20381;-79
2024/01/17 12:21:38;;;;;;;1.48;1.45;;;0.40;99.90;;;;;;4964201;28;20065;-79
2024/01/17 12:24:08;;;;;;;0.70;0.70;;;0.00;99.90;;;;;;4964708;28;20058;-80
2024/01/17 12:26:34;;;;;;;0.70;0.70;;;0.00;99.90;;;;;;4963488;28;20035;-80
2024/01/17 12:29:13;;;;;;;0.77;0.77;;;0.00;99.90;;;;;;4963564;28;20039;-79
2024/01/17 12:31:39;;;;;;;0.70;0.70;;;0.00;99.90;;;;;;4972657;28;20484;-79
2024/01/17 12:34:06;;;;;;;3.42;2.15;;;0.00;99.90;;;;;;4972140;28;20050;-79
2024/01/17 12:36:34;;;;;;;0.80;0.80;;;0.00;99.90;;;;;;4969064;28;20113;-79
2024/01/17 12:39:08;;;;;;;0.70;0.70;;;0.10;99.90;;;;;;4953329;28;20093;-79
2024/01/17 12:41:36;;;;;;;0.70;0.70;;;0.00;99.90;;;;;;4965651;28;20043;-79
2024/01/17 12:44:04;;;;;;;0.80;0.80;;;0.00;99.90;;;;;;4950007;28;20179;-80
2024/01/17 12:46:33;;;;;;;0.63;0.63;;;0.00;99.90;;;;;;4976878;28;20110;-81
2024/01/17 12:48:59;;;;;;;;;;;0.10;99.90;;;;;;4967259;28;20046;-79
2024/01/17 12:51:26;;;;;;;1.25;1.25;;;0.20;99.90;;;;;;4950791;28;19977;-79
2024/01/17 12:53:53;;;;;;;0.80;0.80;;;0.20;99.90;;;;;;4956682;28;20053;-79
2024/01/17 12:57:59;;;;;;;0.88;0.88;;;0.10;99.90;;;;;;5093929;27;21145;-80